sensor_id;sensor_type;location;lat;lon;timestamp;P1;P2;P0
57798;PMS7003;43626;53.866;30.298;2023-09-19T00:01:27;30.4;26.6;16.4
57798;PMS7003;43626;53.866;30.298;2023-09-19T00:06:35;33;28.3;17.3
57798;PMS7003;43626;53.866;30.298;2023-09-19T00:10:55;30.4;26;16.4
57798;PMS7003;43626;53.866;30.298;2023-09-19T00:16:13;29.6;25.2;16.8
57798;PMS7003;43626;53.866;30.298;2023-09-19T00:21:33;30.2;24.4;15.8
57798;PMS7003;43626;53.866;30.298;2023-09-19T00:26:11;28.4;24.6;16.4
57798;PMS7003;43626;53.866;30.298;2023-09-19T00:31:01;30.6;26.2;17.4
57798;PMS7003;43626;53.866;30.298;2023-09-19T00:35:56;30.4;26.6;16.4
57798;PMS7003;43626;53.866;30.298;2023-09-19T00:41:35;29.2;24.8;16.4
57798;PMS7003;43626;53.866;30.298;2023-09-19T00:46:35;26.6;24;15.6
57798;PMS7003;43626;53.866;30.298;2023-09-19T00:51:27;30.6;25.6;16.6
57798;PMS7003;43626;53.866;30.298;2023-09-19T00:56:19;30.6;26.4;16.2
57798;PMS7003;43626;53.866;30.298;2023-09-19T01:00:49;29.8;25.4;16.8
57798;PMS7003;43626;53.866;30.298;2023-09-19T01:06:25;30.5;26;15.5
57798;PMS7003;43626;53.866;30.298;2023-09-19T01:11:33;27.6;24.6;15.6
57798;PMS7003;43626;53.866;30.298;2023-09-19T01:16:13;29.8;26.4;17.4
57798;PMS7003;43626;53.866;30.298;2023-09-19T01:20:57;28.4;24.2;16.2
57798;PMS7003;43626;53.866;30.298;2023-09-19T01:26:11;28.8;24.4;16.4
57798;PMS7003;43626;53.866;30.298;2023-09-19T01:31:25;26.6;24.4;16
57798;PMS7003;43626;53.866;30.298;2023-09-19T01:36:34;26.6;23.4;15.2
57798;PMS7003;43626;53.866;30.298;2023-09-19T01:41:11;27.8;23.4;14.6
57798;PMS7003;43626;53.866;30.298;2023-09-19T01:46:21;28;23.6;15
57798;PMS7003;43626;53.866;30.298;2023-09-19T01:50:55;29;25.4;16
57798;PMS7003;43626;53.866;30.298;2023-09-19T01:56:19;24.4;21.8;14.6
57798;PMS7003;43626;53.866;30.298;2023-09-19T02:01:35;26.2;23;14.2
57798;PMS7003;43626;53.866;30.298;2023-09-19T02:05:49;27.8;24.8;15.5
57798;PMS7003;43626;53.866;30.298;2023-09-19T02:10:55;26.2;22.8;14.8
57798;PMS7003;43626;53.866;30.298;2023-09-19T02:16:05;25.8;22.6;14.6
57798;PMS7003;43626;53.866;30.298;2023-09-19T02:21:33;25;21.6;14.6
57798;PMS7003;43626;53.866;30.298;2023-09-19T02:26:33;25.8;22.6;15.2
57798;PMS7003;43626;53.866;30.298;2023-09-19T02:31:25;27.6;23.8;14
57798;PMS7003;43626;53.866;30.298;2023-09-19T02:35:57;23;20.8;13.4
57798;PMS7003;43626;53.866;30.298;2023-09-19T02:40:59;23.2;22;14.8
57798;PMS7003;43626;53.866;30.298;2023-09-19T02:45:49;23.8;22.6;14.8
57798;PMS7003;43626;53.866;30.298;2023-09-19T02:51:33;23.4;21.2;13.6
57798;PMS7003;43626;53.866;30.298;2023-09-19T02:55:53;24;19.4;13.2
57798;PMS7003;43626;53.866;30.298;2023-09-19T03:00:55;23;21;13.6
57798;PMS7003;43626;53.866;30.298;2023-09-19T03:05:59;23.5;20.5;13.3
57798;PMS7003;43626;53.866;30.298;2023-09-19T03:11:05;23.8;20.2;14
57798;PMS7003;43626;53.866;30.298;2023-09-19T03:16:33;23.2;20.4;12.8
57798;PMS7003;43626;53.866;30.298;2023-09-19T03:21:33;25.2;21.2;13.4
57798;PMS7003;43626;53.866;30.298;2023-09-19T03:26:35;25.4;23;15.2
57798;PMS7003;43626;53.866;30.298;2023-09-19T03:31:27;26.6;22.4;14.2
57798;PMS7003;43626;53.866;30.298;2023-09-19T03:36:11;23.6;21.4;13.8
57798;PMS7003;43626;53.866;30.298;2023-09-19T03:41:19;23.6;21;14.2
57798;PMS7003;43626;53.866;30.298;2023-09-19T03:45:49;23.6;21.4;14.2
57798;PMS7003;43626;53.866;30.298;2023-09-19T03:50:49;24.8;22;15
57798;PMS7003;43626;53.866;30.298;2023-09-19T03:56:05;24.6;22.2;13.8
57798;PMS7003;43626;53.866;30.298;2023-09-19T04:00:59;26;22.2;14.4
57798;PMS7003;43626;53.866;30.298;2023-09-19T04:06:31;30.6;26;16.8
57798;PMS7003;43626;53.866;30.298;2023-09-19T04:11:33;26.8;24.3;15.5
57798;PMS7003;43626;53.866;30.298;2023-09-19T04:16:19;25.8;24;15.8
57798;PMS7003;43626;53.866;30.298;2023-09-19T04:21:27;26.8;23.4;17
57798;PMS7003;43626;53.866;30.298;2023-09-19T04:26:07;25.6;22.8;15.6
57798;PMS7003;43626;53.866;30.298;2023-09-19T04:31:19;28.4;25.4;16.2
57798;PMS7003;43626;53.866;30.298;2023-09-19T04:35:53;30.6;26.4;16
57798;PMS7003;43626;53.866;30.298;2023-09-19T04:40:56;28.6;25.8;16.6
57798;PMS7003;43626;53.866;30.298;2023-09-19T04:45:49;31.8;26.8;17.6
57798;PMS7003;43626;53.866;30.298;2023-09-19T04:50:53;39;32.2;20.2
57798;PMS7003;43626;53.866;30.298;2023-09-19T04:56:13;39;32;21
57798;PMS7003;43626;53.866;30.298;2023-09-19T05:01:33;40.6;33;20.6
57798;PMS7003;43626;53.866;30.298;2023-09-19T05:06:21;41.6;33.6;21.2
57798;PMS7003;43626;53.866;30.298;2023-09-19T05:11:35;43.8;34;21
57798;PMS7003;43626;53.866;30.298;2023-09-19T05:15:49;40.2;32.2;20.8
57798;PMS7003;43626;53.866;30.298;2023-09-19T05:21:19;41.2;32.6;20
57798;PMS7003;43626;53.866;30.298;2023-09-19T05:25:49;36.2;28.4;18
57798;PMS7003;43626;53.866;30.298;2023-09-19T05:31:11;36.8;30.4;19.6
57798;PMS7003;43626;53.866;30.298;2023-09-19T05:35:49;33.2;28.4;18
57798;PMS7003;43626;53.866;30.298;2023-09-19T05:41:03;30;27.6;18
57798;PMS7003;43626;53.866;30.298;2023-09-19T05:46:27;33;27.2;17
57798;PMS7003;43626;53.866;30.298;2023-09-19T05:51:29;31.2;27;17.2
57798;PMS7003;43626;53.866;30.298;2023-09-19T05:56:17;28.8;26.8;16.8
57798;PMS7003;43626;53.866;30.298;2023-09-19T06:01:29;32.6;28.4;18.4
57798;PMS7003;43626;53.866;30.298;2023-09-19T06:06:13;29.2;25.6;16
57798;PMS7003;43626;53.866;30.298;2023-09-19T06:11:21;31.3;26.3;17
57798;PMS7003;43626;53.866;30.298;2023-09-19T06:15:49;32.6;27.8;17.2
57798;PMS7003;43626;53.866;30.298;2023-09-19T06:20:49;31.4;27.2;17.4
57798;PMS7003;43626;53.866;30.298;2023-09-19T06:25:49;32;27.8;18
57798;PMS7003;43626;53.866;30.298;2023-09-19T06:30:57;32;26.2;16.8
57798;PMS7003;43626;53.866;30.298;2023-09-19T06:36:31;28.8;25.6;16.2
57798;PMS7003;43626;53.866;30.298;2023-09-19T06:41:35;40.8;33.2;21
57798;PMS7003;43626;53.866;30.298;2023-09-19T06:46:21;49;37.4;23
57798;PMS7003;43626;53.866;30.298;2023-09-19T06:51:33;45.7;37;22.3
57798;PMS7003;43626;53.866;30.298;2023-09-19T06:56:13;33.8;28.4;17.8
57798;PMS7003;43626;53.866;30.298;2023-09-19T07:01:19;28;25.6;16.6
57798;PMS7003;43626;53.866;30.298;2023-09-19T07:06:07;29.6;25.6;16.4
57798;PMS7003;43626;53.866;30.298;2023-09-19T07:10:50;28.8;25.6;16.8
57798;PMS7003;43626;53.866;30.298;2023-09-19T07:15:59;32.2;26;16.4
57798;PMS7003;43626;53.866;30.298;2023-09-19T07:21:05;28;25.2;16.2
57798;PMS7003;43626;53.866;30.298;2023-09-19T07:26:15;29;24.2;16
57798;PMS7003;43626;53.866;30.298;2023-09-19T07:31:13;30;24.2;15.6
57798;PMS7003;43626;53.866;30.298;2023-09-19T07:36:33;28.4;25.4;16.6
57798;PMS7003;43626;53.866;30.298;2023-09-19T07:41:33;30;24.8;15.8
57798;PMS7003;43626;53.866;30.298;2023-09-19T07:46:35;34;27.8;18.8
57798;PMS7003;43626;53.866;30.298;2023-09-19T07:51:21;30.3;26.8;16.5
57798;PMS7003;43626;53.866;30.298;2023-09-19T07:56:01;28.8;25.4;15.6
57798;PMS7003;43626;53.866;30.298;2023-09-19T08:00:49;53.6;38.4;22
57798;PMS7003;43626;53.866;30.298;2023-09-19T08:06:13;41.8;32.6;19.6
57798;PMS7003;43626;53.866;30.298;2023-09-19T08:10:52;28;25.4;16.4
57798;PMS7003;43626;53.866;30.298;2023-09-19T08:16:15;26.8;23.2;14.4
57798;PMS7003;43626;53.866;30.298;2023-09-19T08:20:51;23.4;21.6;14.8
57798;PMS7003;43626;53.866;30.298;2023-09-19T08:26:35;27.4;23.6;14.8
57798;PMS7003;43626;53.866;30.298;2023-09-19T08:31:35;27.6;25;15.4
57798;PMS7003;43626;53.866;30.298;2023-09-19T08:36:13;27.4;22.6;15
57798;PMS7003;43626;53.866;30.298;2023-09-19T08:41:35;27.4;25;15
57798;PMS7003;43626;53.866;30.298;2023-09-19T08:46:27;27.8;25;15.8
57798;PMS7003;43626;53.866;30.298;2023-09-19T08:51:23;27.3;22.8;14
57798;PMS7003;43626;53.866;30.298;2023-09-19T08:56:35;25.2;22.2;14
57798;PMS7003;43626;53.866;30.298;2023-09-19T09:01:27;27.4;24.2;15
57798;PMS7003;43626;53.866;30.298;2023-09-19T09:05:57;23.8;21.6;14.2
57798;PMS7003;43626;53.866;30.298;2023-09-19T09:11:15;24;23.6;15.2
57798;PMS7003;43626;53.866;30.298;2023-09-19T09:16:03;25.6;23.2;14.6
57798;PMS7003;43626;53.866;30.298;2023-09-19T09:21:35;24.8;21.4;14.8
57798;PMS7003;43626;53.866;30.298;2023-09-19T09:26:13;23.2;21.2;14
57798;PMS7003;43626;53.866;30.298;2023-09-19T09:31:29;25;21.4;14
57798;PMS7003;43626;53.866;30.298;2023-09-19T09:35:50;23.6;20.2;13.2
57798;PMS7003;43626;53.866;30.298;2023-09-19T09:40:52;25.4;22.4;14
57798;PMS7003;43626;53.866;30.298;2023-09-19T09:46:16;22.8;20;13
57798;PMS7003;43626;53.866;30.298;2023-09-19T09:50:49;24;22.5;14.8
57798;PMS7003;43626;53.866;30.298;2023-09-19T09:56:03;21.8;19;13.4
57798;PMS7003;43626;53.866;30.298;2023-09-19T10:01:45;22.2;20.2;13.6
57798;PMS7003;43626;53.866;30.298;2023-09-19T10:06:40;22;19.8;12.8
57798;PMS7003;43626;53.866;30.298;2023-09-19T10:11:35;22;18.8;12.6
57798;PMS7003;43626;53.866;30.298;2023-09-19T10:16:21;19.4;18.6;12
57798;PMS7003;43626;53.866;30.298;2023-09-19T10:21:36;23.2;19.4;12.8
57798;PMS7003;43626;53.866;30.298;2023-09-19T10:25:55;21.8;19.8;13
57798;PMS7003;43626;53.866;30.298;2023-09-19T10:30:50;22.6;19.6;12.8
57798;PMS7003;43626;53.866;30.298;2023-09-19T10:36:15;22.6;20.2;13.6
57798;PMS7003;43626;53.866;30.298;2023-09-19T10:41:07;22;19.2;12.4
57798;PMS7003;43626;53.866;30.298;2023-09-19T10:46:15;20.4;18.8;11.6
57798;PMS7003;43626;53.866;30.298;2023-09-19T10:51:16;20;18.3;12
57798;PMS7003;43626;53.866;30.298;2023-09-19T10:56:36;21;18.4;12.4
57798;PMS7003;43626;53.866;30.298;2023-09-19T11:01:42;20.2;18;12.2
57798;PMS7003;43626;53.866;30.298;2023-09-19T11:06:14;21.2;19;12.6
57798;PMS7003;43626;53.866;30.298;2023-09-19T11:11:38;22.8;19.8;12.8
57798;PMS7003;43626;53.866;30.298;2023-09-19T11:16:07;19;17.2;11.6
57798;PMS7003;43626;53.866;30.298;2023-09-19T11:20:49;22;20.4;13
57798;PMS7003;43626;53.866;30.298;2023-09-19T11:26:32;20.4;19;12.4
57798;PMS7003;43626;53.866;30.298;2023-09-19T11:30:49;19.4;17;10.8
57798;PMS7003;43626;53.866;30.298;2023-09-19T11:36:02;23;17.6;11.6
57798;PMS7003;43626;53.866;30.298;2023-09-19T11:41:46;20.2;16.8;11.4
57798;PMS7003;43626;53.866;30.298;2023-09-19T11:46:04;17.8;14.4;10
57798;PMS7003;43626;53.866;30.298;2023-09-19T11:51:39;19.5;18.3;11.5
57798;PMS7003;43626;53.866;30.298;2023-09-19T11:55:57;20.8;18.6;11.4
57798;PMS7003;43626;53.866;30.298;2023-09-19T12:00:53;19.4;17;12
57798;PMS7003;43626;53.866;30.298;2023-09-19T12:05:55;19.8;17.6;11
57798;PMS7003;43626;53.866;30.298;2023-09-19T12:11:13;21.2;20;11.8
57798;PMS7003;43626;53.866;30.298;2023-09-19T12:16:33;20.6;18.6;12.2
57798;PMS7003;43626;53.866;30.298;2023-09-19T12:20:49;24;20;13.2
57798;PMS7003;43626;53.866;30.298;2023-09-19T12:25:49;24.6;21;13.8
57798;PMS7003;43626;53.866;30.298;2023-09-19T12:31:13;27.8;23.2;14.8
57798;PMS7003;43626;53.866;30.298;2023-09-19T12:35:55;22.4;20.2;13.6
57798;PMS7003;43626;53.866;30.298;2023-09-19T12:41:35;23.2;20;12.8
57798;PMS7003;43626;53.866;30.298;2023-09-19T12:46:03;20.6;18.6;12.6
57798;PMS7003;43626;53.866;30.298;2023-09-19T12:51:05;23.6;22.4;14
57798;PMS7003;43626;53.866;30.298;2023-09-19T12:56:15;21.8;18.5;11.8
57798;PMS7003;43626;53.866;30.298;2023-09-19T13:01:13;26.8;22.4;15
57798;PMS7003;43626;53.866;30.298;2023-09-19T13:06:36;26.6;23.4;15.4
57798;PMS7003;43626;53.866;30.298;2023-09-19T13:11:03;24.4;20.8;14
57798;PMS7003;43626;53.866;30.298;2023-09-19T13:15:55;22.8;20.2;12.8
57798;PMS7003;43626;53.866;30.298;2023-09-19T13:21:15;23;20.4;13.6
57798;PMS7003;43626;53.866;30.298;2023-09-19T13:25:55;22.2;19.6;12.8
57798;PMS7003;43626;53.866;30.298;2023-09-19T13:31:35;20.4;18.4;12
57798;PMS7003;43626;53.866;30.298;2023-09-19T13:36:35;20.6;17;10.8
57798;PMS7003;43626;53.866;30.298;2023-09-19T13:40:49;18.4;17.4;11.2
57798;PMS7003;43626;53.866;30.298;2023-09-19T13:45:49;20;16.6;10.4
57798;PMS7003;43626;53.866;30.298;2023-09-19T13:51:03;16.6;15.4;10
57798;PMS7003;43626;53.866;30.298;2023-09-19T13:56:35;16;14;9.8
57798;PMS7003;43626;53.866;30.298;2023-09-19T14:00:49;18.8;17.2;11
57798;PMS7003;43626;53.866;30.298;2023-09-19T14:06:01;20.4;17;11.2
57798;PMS7003;43626;53.866;30.298;2023-09-19T14:11:15;18.6;15.8;9.8
57798;PMS7003;43626;53.866;30.298;2023-09-19T14:15:49;18.6;16.4;11.2
57798;PMS7003;43626;53.866;30.298;2023-09-19T14:21:35;20.4;17.6;10.6
57798;PMS7003;43626;53.866;30.298;2023-09-19T14:26:27;20.4;18;12.8
57798;PMS7003;43626;53.866;30.298;2023-09-19T14:30:49;21;17.6;11.6
57798;PMS7003;43626;53.866;30.298;2023-09-19T14:36:06;21.4;18.2;11
57798;PMS7003;43626;53.866;30.298;2023-09-19T14:40:59;19.2;16.2;10.6
57798;PMS7003;43626;53.866;30.298;2023-09-19T14:46:35;21.8;18.8;12.2
57798;PMS7003;43626;53.866;30.298;2023-09-19T14:51:01;19.4;17.2;11.8
57798;PMS7003;43626;53.866;30.298;2023-09-19T14:56:01;19.5;18;11.8
57798;PMS7003;43626;53.866;30.298;2023-09-19T15:01:15;22.2;19;12.4
57798;PMS7003;43626;53.866;30.298;2023-09-19T15:06:15;26.4;21.8;14
57798;PMS7003;43626;53.866;30.298;2023-09-19T15:11:35;23.2;21.2;14
57798;PMS7003;43626;53.866;30.298;2023-09-19T15:16:15;29;24.4;15.4
57798;PMS7003;43626;53.866;30.298;2023-09-19T15:20:55;29.2;26.2;16.4
57798;PMS7003;43626;53.866;30.298;2023-09-19T15:26:01;27.8;23.2;14.8
57798;PMS7003;43626;53.866;30.298;2023-09-19T15:30:59;28.4;24.4;15.8
57798;PMS7003;43626;53.866;30.298;2023-09-19T15:36:36;27;24;15
57798;PMS7003;43626;53.866;30.298;2023-09-19T15:40:49;26.8;23;14.6
57798;PMS7003;43626;53.866;30.298;2023-09-19T15:46:01;30.2;26;16
57798;PMS7003;43626;53.866;30.298;2023-09-19T15:51:13;31.2;26;16.4
57798;PMS7003;43626;53.866;30.298;2023-09-19T15:56:22;32.8;28.3;17.8
57798;PMS7003;43626;53.866;30.298;2023-09-19T16:01:36;50.2;37.4;23.4
57798;PMS7003;43626;53.866;30.298;2023-09-19T16:06:16;79.4;64.4;36.4
57798;PMS7003;43626;53.866;30.298;2023-09-19T16:11:16;111;91.6;50.8
57798;PMS7003;43626;53.866;30.298;2023-09-19T16:15:55;129.6;107.4;58
57798;PMS7003;43626;53.866;30.298;2023-09-19T16:21:09;114.2;95.2;49.4
57798;PMS7003;43626;53.866;30.298;2023-09-19T16:26:35;114.8;96.8;52
57798;PMS7003;43626;53.866;30.298;2023-09-19T16:30:59;83.8;69;39.6
57798;PMS7003;43626;53.866;30.298;2023-09-19T16:35:49;73;56.4;32.4
57798;PMS7003;43626;53.866;30.298;2023-09-19T16:41:15;66.2;50;30
57798;PMS7003;43626;53.866;30.298;2023-09-19T16:46:27;50;38.8;24
57798;PMS7003;43626;53.866;30.298;2023-09-19T16:51:35;43;32.8;19.8
57798;PMS7003;43626;53.866;30.298;2023-09-19T16:56:27;38.5;30;17.8
57798;PMS7003;43626;53.866;30.298;2023-09-19T17:00:55;29.8;25.6;16.8
57798;PMS7003;43626;53.866;30.298;2023-09-19T17:06:01;29.4;25.8;15.8
57798;PMS7003;43626;53.866;30.298;2023-09-19T17:11:00;27.2;24.2;15.6
57798;PMS7003;43626;53.866;30.298;2023-09-19T17:16:35;33.4;28.6;17.8
57798;PMS7003;43626;53.866;30.298;2023-09-19T17:21:07;39;30.8;19.8
57798;PMS7003;43626;53.866;30.298;2023-09-19T17:25:49;43.4;35;21.8
57798;PMS7003;43626;53.866;30.298;2023-09-19T17:31:15;45.6;34.2;21.4
57798;PMS7003;43626;53.866;30.298;2023-09-19T17:36:16;48.4;35.6;21.6
57798;PMS7003;43626;53.866;30.298;2023-09-19T17:41:35;45;35.8;21.8
57798;PMS7003;43626;53.866;30.298;2023-09-19T17:46:27;43.4;33.4;20.8
57798;PMS7003;43626;53.866;30.298;2023-09-19T17:51:21;41.8;34;21.4
57798;PMS7003;43626;53.866;30.298;2023-09-19T17:55:49;40;31;19.8
57798;PMS7003;43626;53.866;30.298;2023-09-19T18:01:27;40.5;32;19.8
57798;PMS7003;43626;53.866;30.298;2023-09-19T18:06:15;38.8;31.8;19.4
57798;PMS7003;43626;53.866;30.298;2023-09-19T18:11:25;39.4;31.8;20.2
57798;PMS7003;43626;53.866;30.298;2023-09-19T18:16:23;34.2;29.4;18.8
57798;PMS7003;43626;53.866;30.298;2023-09-19T18:21:18;33.6;28.2;18.6
57798;PMS7003;43626;53.866;30.298;2023-09-19T18:26:27;34.4;30;18.8
57798;PMS7003;43626;53.866;30.298;2023-09-19T18:31:35;34;28.4;17.4
57798;PMS7003;43626;53.866;30.298;2023-09-19T18:36:21;33.2;29.4;18.4
57798;PMS7003;43626;53.866;30.298;2023-09-19T18:41:13;37;30;19.4
57798;PMS7003;43626;53.866;30.298;2023-09-19T18:45:56;37;29.8;18
57798;PMS7003;43626;53.866;30.298;2023-09-19T18:51:08;35.6;29.8;18.6
57798;PMS7003;43626;53.866;30.298;2023-09-19T18:56:37;35.2;30.6;19.2
57798;PMS7003;43626;53.866;30.298;2023-09-19T19:01:08;38.5;32.8;20.5
57798;PMS7003;43626;53.866;30.298;2023-09-19T19:06:03;36.6;30.6;19
57798;PMS7003;43626;53.866;30.298;2023-09-19T19:11:25;35.4;30.2;18.6
57798;PMS7003;43626;53.866;30.298;2023-09-19T19:16:27;36.6;30.6;20.2
57798;PMS7003;43626;53.866;30.298;2023-09-19T19:21:27;38.6;30.6;19.6
57798;PMS7003;43626;53.866;30.298;2023-09-19T19:25:57;34.8;29.4;19.4
57798;PMS7003;43626;53.866;30.298;2023-09-19T19:30:55;33.8;29.8;19.2
57798;PMS7003;43626;53.866;30.298;2023-09-19T19:36:02;38;31.8;19.2
57798;PMS7003;43626;53.866;30.298;2023-09-19T19:41:35;35.8;30.4;19.8
57798;PMS7003;43626;53.866;30.298;2023-09-19T19:46:27;35;29;19.4
57798;PMS7003;43626;53.866;30.298;2023-09-19T19:51:23;32.4;29.2;19
57798;PMS7003;43626;53.866;30.298;2023-09-19T19:56:11;34.6;29.2;19
57798;PMS7003;43626;53.866;30.298;2023-09-19T20:01:05;37.5;30.3;19.5
57798;PMS7003;43626;53.866;30.298;2023-09-19T20:06:37;36.4;29.6;19
57798;PMS7003;43626;53.866;30.298;2023-09-19T20:11:13;35.6;30.2;19.2
57798;PMS7003;43626;53.866;30.298;2023-09-19T20:15:53;36;30;19
57798;PMS7003;43626;53.866;30.298;2023-09-19T20:20:55;32.6;29.4;19
57798;PMS7003;43626;53.866;30.298;2023-09-19T20:25:53;36;29.4;18.8
57798;PMS7003;43626;53.866;30.298;2023-09-19T20:31:35;34.4;29.2;18.8
57798;PMS7003;43626;53.866;30.298;2023-09-19T20:36:25;31;26.8;17.8
57798;PMS7003;43626;53.866;30.298;2023-09-19T20:41:21;31.8;26.6;17.2
57798;PMS7003;43626;53.866;30.298;2023-09-19T20:45:47;32;27;18
57798;PMS7003;43626;53.866;30.298;2023-09-19T20:51:23;29;26.2;16.6
57798;PMS7003;43626;53.866;30.298;2023-09-19T20:56:35;29;26.4;17.8
57798;PMS7003;43626;53.866;30.298;2023-09-19T21:00:49;33;27.5;17.8
57798;PMS7003;43626;53.866;30.298;2023-09-19T21:05:58;31.2;27.6;18.6
57798;PMS7003;43626;53.866;30.298;2023-09-19T21:10:49;31.2;27;17.8
57798;PMS7003;43626;53.866;30.298;2023-09-19T21:16:03;31.4;26.8;17
57798;PMS7003;43626;53.866;30.298;2023-09-19T21:21:35;31;27.4;16.8
57798;PMS7003;43626;53.866;30.298;2023-09-19T21:26:27;26.8;25.4;15.2
57798;PMS7003;43626;53.866;30.298;2023-09-19T21:31:23;30;25.2;15.8
57798;PMS7003;43626;53.866;30.298;2023-09-19T21:36:03;28.2;24.8;16
57798;PMS7003;43626;53.866;30.298;2023-09-19T21:41:23;28.2;24.2;15.8
57798;PMS7003;43626;53.866;30.298;2023-09-19T21:46:37;28.8;24.4;15.8
57798;PMS7003;43626;53.866;30.298;2023-09-19T21:51:19;28.4;26;16.2
57798;PMS7003;43626;53.866;30.298;2023-09-19T21:55:49;28.6;24.2;16.2
57798;PMS7003;43626;53.866;30.298;2023-09-19T22:01:31;28.3;24.5;15.5
57798;PMS7003;43626;53.866;30.298;2023-09-19T22:06:03;25.6;22.8;15.2
57798;PMS7003;43626;53.866;30.298;2023-09-19T22:11:37;29.2;26.4;16
57798;PMS7003;43626;53.866;30.298;2023-09-19T22:16:16;27;23.8;15.4
57798;PMS7003;43626;53.866;30.298;2023-09-19T22:21:23;29.8;25.6;15.8
57798;PMS7003;43626;53.866;30.298;2023-09-19T22:26:04;27.6;24.4;15.2
57798;PMS7003;43626;53.866;30.298;2023-09-19T22:31:09;26.4;24;14.2
57798;PMS7003;43626;53.866;30.298;2023-09-19T22:36:38;29.6;23.6;15.8
57798;PMS7003;43626;53.866;30.298;2023-09-19T22:41:07;27.2;22.8;14.6
57798;PMS7003;43626;53.866;30.298;2023-09-19T22:45:49;27.2;23;15.2
57798;PMS7003;43626;53.866;30.298;2023-09-19T22:50:49;26.4;23.6;14.6
57798;PMS7003;43626;53.866;30.298;2023-09-19T22:56:03;27.8;24;15.6
57798;PMS7003;43626;53.866;30.298;2023-09-19T23:01:18;26.8;22.8;14.3
57798;PMS7003;43626;53.866;30.298;2023-09-19T23:06:37;27;24.4;15.4
57798;PMS7003;43626;53.866;30.298;2023-09-19T23:11:09;25.2;21.6;14.2
57798;PMS7003;43626;53.866;30.298;2023-09-19T23:16:03;27.2;23.4;15
57798;PMS7003;43626;53.866;30.298;2023-09-19T23:21:27;27.4;23.2;14.8
57798;PMS7003;43626;53.866;30.298;2023-09-19T23:26:37;25.8;23;13.8
57798;PMS7003;43626;53.866;30.298;2023-09-19T23:31:27;25.4;21.6;14.6
57798;PMS7003;43626;53.866;30.298;2023-09-19T23:35:49;23.6;21.8;14
57798;PMS7003;43626;53.866;30.298;2023-09-19T23:40:49;25.6;22;14.4
57798;PMS7003;43626;53.866;30.298;2023-09-19T23:46:25;24.2;20.4;13.2
57798;PMS7003;43626;53.866;30.298;2023-09-19T23:51:38;26.8;22.6;14.6
57798;PMS7003;43626;53.866;30.298;2023-09-19T23:56:26;25;22;14.4
